Detall de PIREP

Printer-friendly versionPDF version

[2008/12/20 19:12:00]
Flight IATA:CT3110
Pilot Number:026
Company ICAO:CAT
Aircraft Type:DC85/A
PAX:136
Departing Airport: LEBL
Destination Airport: LEPA
Alternate Airport:LEBL
Online: VATSIM
Route:LARPA B31 TOLSO
Flight Level:FL170
No Slew and time accel
No pause
Crash detect
Detect pilot in Cockpit between each 30 and 45 minutes
19:12 Zero fuel Weight: 280027 Lbs, Fuel Weight: 17998 Lbs
19:12 VATSIM:LEBL 201830Z 31011KT 280V350 CAVOK 10/04 Q1030 NOSIG
19:12 VATSIM:LEPA 201900Z 30002KT CAVOK 11/07 Q1031 NOSIG
19:12 VOICE CATALONIAN
19:28 Parking Brakes off
19:34 Take-off
19:34 Take off Weight: 296493 Lbs
19:34 Wind: 326º @ 015 Knots Heading: 244º
19:34 POS N41º 17´ 43´´ E002º 04´ 22´´
19:34 Flaps:2 at 160 Knots
19:34 Gear Up: 160 Knots
19:34 Flaps:1 at 155 Knots
19:35 Flaps:0 at 217 Knots
19:41 TOC
19:41 Fuel Weight: 12900 Lb
19:47 TOD
19:47 Fuel Weight: 11
843 Lb
19:49 Wind:331º@018 Knots Heading: 166º Ground Speed: 358 Knots Altitude 13959 ft
20:03 Flaps:1 at 270 Knots
20:03 Flaps:2 at 270 Knots
20:04 Wind:026º@009 Knots Heading: 239º Ground Speed: 275 Knots Altitude 2752 ft
20:04 Gear Down: 244 Knots
20:04 Flaps:3 at 211 Knots
20:04 Flaps:4 at 209 Knots
20:05 TouchDown:Rate -751 ft/min Speed: 162 Knots
20:05 Flaps:5 at 149 Knots
20:06 VATSIM:LEPA 202000Z 03004KT 330V060 CAVOK 11/06 Q1031 NOSIG
20:06 Land
20:06 Wind:340º@004 Knots
20:06 Heading: 240º
20:06 Flight Duration: 00:32
20:06 Landing Weight: 290279 Lbs
20:06 POS N39º 32´ 41´´ E002º 44´ 20´´
20:13 Parking brakes on
20:13 Block to Block Duration: 00:45
20:13 Final Fuel: 9455 Lbls
20:13 Spent Fuel: 8542 Lbls
20:13 Flight Length: 157 NM
20:13 TOD Land Length: 85 NM

Exportar CSV

Powered by Drupal - Modified by Danger4k